Wedowee, Alabama
Current Conditions -  °F | °C
As of 7:53 AM on Monday 24 Nov 2014 (Local Time) from KANB Reporting Station
Overcast Overcast  
Wind Chill: 65°   Ceiling: 2000
Heat Index: 65°   Visibility: 10mi
Dew Point: 59°   Wind: 14mph
Humidity: 81%   Direction: 230°SW
Pressure: 29.78"   Gusts: NA
Location:  33.31°N, 85.48°W
Report Text: KANB 241353Z AUTO 23012KT 10SM OVC020 18/15 A2978 RMK AO2 SLP081 T01830150 $
Loading
Personal Weather Stations






























Interactive Weather Map New forecast layout! Learn more

10-Day Weather Forecast

Advertisements
Track Severe Weather on mobile